sensor_id;sensor_type;location;lat;lon;timestamp;P1;durP1;ratioP1;P2;durP2;ratioP2
20138;SDS011;10230;51.502;10.800;2022-12-20T00:02:15;13.67;;;6.80;;
20138;SDS011;10230;51.502;10.800;2022-12-20T00:04:40;16.90;;;9.10;;
20138;SDS011;10230;51.502;10.800;2022-12-20T00:07:06;18.40;;;9.23;;
20138;SDS011;10230;51.502;10.800;2022-12-20T00:09:32;17.73;;;8.90;;
20138;SDS011;10230;51.502;10.800;2022-12-20T00:11:58;16.63;;;8.47;;
20138;SDS011;10230;51.502;10.800;2022-12-20T00:14:23;15.73;;;8.47;;
20138;SDS011;10230;51.502;10.800;2022-12-20T00:16:49;16.20;;;9.33;;
20138;SDS011;10230;51.502;10.800;2022-12-20T00:19:15;19.83;;;10.90;;
20138;SDS011;10230;51.502;10.800;2022-12-20T00:21:40;22.60;;;12.20;;
20138;SDS011;10230;51.502;10.800;2022-12-20T00:24:06;20.53;;;11.93;;
20138;SDS011;10230;51.502;10.800;2022-12-20T00:26:32;26.83;;;13.63;;
20138;SDS011;10230;51.502;10.800;2022-12-20T00:28:59;21.00;;;11.23;;
20138;SDS011;10230;51.502;10.800;2022-12-20T00:31:26;16.10;;;8.53;;
20138;SDS011;10230;51.502;10.800;2022-12-20T00:33:53;17.67;;;9.63;;
20138;SDS011;10230;51.502;10.800;2022-12-20T00:36:19;18.87;;;9.70;;
20138;SDS011;10230;51.502;10.800;2022-12-20T00:38:50;19.97;;;10.13;;
20138;SDS011;10230;51.502;10.800;2022-12-20T00:41:25;17.40;;;9.40;;
20138;SDS011;10230;51.502;10.800;2022-12-20T00:44:01;17.87;;;8.77;;
20138;SDS011;10230;51.502;10.800;2022-12-20T00:46:31;19.43;;;11.00;;
20138;SDS011;10230;51.502;10.800;2022-12-20T00:49:14;18.70;;;9.17;;
20138;SDS011;10230;51.502;10.800;2022-12-20T00:51:43;16.53;;;8.73;;
20138;SDS011;10230;51.502;10.800;2022-12-20T00:54:10;17.90;;;8.67;;
20138;SDS011;10230;51.502;10.800;2022-12-20T00:56:36;14.73;;;8.17;;
20138;SDS011;10230;51.502;10.800;2022-12-20T00:59:04;14.03;;;7.83;;
20138;SDS011;10230;51.502;10.800;2022-12-20T01:01:31;16.97;;;8.03;;
20138;SDS011;10230;51.502;10.800;2022-12-20T01:04:05;16.90;;;9.10;;
20138;SDS011;10230;51.502;10.800;2022-12-20T01:06:47;14.27;;;8.37;;
20138;SDS011;10230;51.502;10.800;2022-12-20T01:09:13;16.70;;;9.00;;
20138;SDS011;10230;51.502;10.800;2022-12-20T01:11:40;18.07;;;8.83;;
20138;SDS011;10230;51.502;10.800;2022-12-20T01:14:07;24.63;;;10.90;;
20138;SDS011;10230;51.502;10.800;2022-12-20T01:16:37;17.07;;;10.07;;
20138;SDS011;10230;51.502;10.800;2022-12-20T01:19:04;15.17;;;8.17;;
20138;SDS011;10230;51.502;10.800;2022-12-20T01:21:30;15.23;;;8.37;;
20138;SDS011;10230;51.502;10.800;2022-12-20T01:23:56;14.63;;;8.20;;
20138;SDS011;10230;51.502;10.800;2022-12-20T01:26:23;14.60;;;7.70;;
20138;SDS011;10230;51.502;10.800;2022-12-20T01:28:54;12.37;;;7.13;;
20138;SDS011;10230;51.502;10.800;2022-12-20T01:31:20;16.80;;;8.50;;
20138;SDS011;10230;51.502;10.800;2022-12-20T01:33:47;15.60;;;7.60;;
20138;SDS011;10230;51.502;10.800;2022-12-20T01:36:14;16.03;;;8.33;;
20138;SDS011;10230;51.502;10.800;2022-12-20T01:38:40;14.90;;;8.23;;
20138;SDS011;10230;51.502;10.800;2022-12-20T01:41:07;12.87;;;7.87;;
20138;SDS011;10230;51.502;10.800;2022-12-20T01:43:48;13.77;;;8.00;;
20138;SDS011;10230;51.502;10.800;2022-12-20T01:46:20;14.77;;;8.07;;
20138;SDS011;10230;51.502;10.800;2022-12-20T01:48:48;15.03;;;7.77;;
20138;SDS011;10230;51.502;10.800;2022-12-20T01:51:35;12.77;;;7.47;;
20138;SDS011;10230;51.502;10.800;2022-12-20T01:54:16;15.00;;;8.27;;
20138;SDS011;10230;51.502;10.800;2022-12-20T01:56:47;14.60;;;7.47;;
20138;SDS011;10230;51.502;10.800;2022-12-20T01:59:18;15.50;;;8.30;;
20138;SDS011;10230;51.502;10.800;2022-12-20T02:01:44;17.47;;;8.00;;
20138;SDS011;10230;51.502;10.800;2022-12-20T02:04:10;15.87;;;7.77;;
20138;SDS011;10230;51.502;10.800;2022-12-20T02:06:36;13.47;;;7.60;;
20138;SDS011;10230;51.502;10.800;2022-12-20T02:09:02;14.87;;;8.70;;
20138;SDS011;10230;51.502;10.800;2022-12-20T02:17:30;17.07;;;8.23;;
20138;SDS011;10230;51.502;10.800;2022-12-20T02:25:50;13.43;;;7.77;;
20138;SDS011;10230;51.502;10.800;2022-12-20T02:31:19;11.83;;;7.73;;
20138;SDS011;10230;51.502;10.800;2022-12-20T02:33:46;15.33;;;7.40;;
20138;SDS011;10230;51.502;10.800;2022-12-20T02:45:32;15.17;;;7.40;;
20138;SDS011;10230;51.502;10.800;2022-12-20T02:48:02;10.80;;;6.33;;
20138;SDS011;10230;51.502;10.800;2022-12-20T03:18:00;12.47;;;6.70;;
20138;SDS011;10230;51.502;10.800;2022-12-20T03:20:28;13.23;;;7.37;;
20138;SDS011;10230;51.502;10.800;2022-12-20T03:22:55;13.57;;;7.37;;
20138;SDS011;10230;51.502;10.800;2022-12-20T03:25:22;10.47;;;6.67;;
20138;SDS011;10230;51.502;10.800;2022-12-20T03:27:51;10.53;;;5.97;;
20138;SDS011;10230;51.502;10.800;2022-12-20T03:30:17;10.93;;;7.80;;
20138;SDS011;10230;51.502;10.800;2022-12-20T03:32:43;12.63;;;7.00;;
20138;SDS011;10230;51.502;10.800;2022-12-20T03:35:09;12.27;;;6.40;;
20138;SDS011;10230;51.502;10.800;2022-12-20T03:37:35;9.90;;;5.60;;
20138;SDS011;10230;51.502;10.800;2022-12-20T03:40:01;11.20;;;6.70;;
20138;SDS011;10230;51.502;10.800;2022-12-20T03:42:27;12.77;;;6.87;;
20138;SDS011;10230;51.502;10.800;2022-12-20T03:44:53;12.40;;;7.33;;
20138;SDS011;10230;51.502;10.800;2022-12-20T03:47:19;13.77;;;7.10;;
20138;SDS011;10230;51.502;10.800;2022-12-20T03:49:45;12.93;;;6.70;;
20138;SDS011;10230;51.502;10.800;2022-12-20T03:52:11;16.30;;;7.40;;
20138;SDS011;10230;51.502;10.800;2022-12-20T03:54:38;15.80;;;8.20;;
20138;SDS011;10230;51.502;10.800;2022-12-20T03:57:04;15.97;;;8.00;;
20138;SDS011;10230;51.502;10.800;2022-12-20T03:59:30;14.20;;;7.70;;
20138;SDS011;10230;51.502;10.800;2022-12-20T04:01:56;11.13;;;6.60;;
20138;SDS011;10230;51.502;10.800;2022-12-20T04:04:21;11.80;;;5.97;;
20138;SDS011;10230;51.502;10.800;2022-12-20T04:06:47;10.97;;;6.30;;
20138;SDS011;10230;51.502;10.800;2022-12-20T04:09:13;10.90;;;6.47;;
20138;SDS011;10230;51.502;10.800;2022-12-20T04:11:39;11.50;;;6.10;;
20138;SDS011;10230;51.502;10.800;2022-12-20T04:14:05;11.20;;;6.63;;
20138;SDS011;10230;51.502;10.800;2022-12-20T04:16:31;11.87;;;6.47;;
20138;SDS011;10230;51.502;10.800;2022-12-20T04:18:57;10.67;;;6.90;;
20138;SDS011;10230;51.502;10.800;2022-12-20T04:21:27;13.67;;;7.07;;
20138;SDS011;10230;51.502;10.800;2022-12-20T04:23:54;10.30;;;6.20;;
20138;SDS011;10230;51.502;10.800;2022-12-20T04:26:20;9.90;;;6.30;;
20138;SDS011;10230;51.502;10.800;2022-12-20T04:28:46;9.87;;;5.90;;
20138;SDS011;10230;51.502;10.800;2022-12-20T04:31:11;13.80;;;6.87;;
20138;SDS011;10230;51.502;10.800;2022-12-20T04:33:37;12.40;;;6.80;;
20138;SDS011;10230;51.502;10.800;2022-12-20T04:36:04;11.90;;;7.50;;
20138;SDS011;10230;51.502;10.800;2022-12-20T04:38:29;13.57;;;7.67;;
20138;SDS011;10230;51.502;10.800;2022-12-20T04:40:55;12.83;;;7.27;;
20138;SDS011;10230;51.502;10.800;2022-12-20T04:43:21;13.27;;;6.70;;
20138;SDS011;10230;51.502;10.800;2022-12-20T04:45:48;18.00;;;7.53;;
20138;SDS011;10230;51.502;10.800;2022-12-20T04:48:17;10.87;;;6.50;;
20138;SDS011;10230;51.502;10.800;2022-12-20T04:50:46;12.73;;;6.87;;
20138;SDS011;10230;51.502;10.800;2022-12-20T04:53:13;12.17;;;7.53;;
20138;SDS011;10230;51.502;10.800;2022-12-20T04:55:57;10.67;;;7.20;;
20138;SDS011;10230;51.502;10.800;2022-12-20T04:58:23;11.10;;;7.07;;
20138;SDS011;10230;51.502;10.800;2022-12-20T05:00:49;11.60;;;6.20;;
20138;SDS011;10230;51.502;10.800;2022-12-20T05:03:16;13.83;;;7.40;;
20138;SDS011;10230;51.502;10.800;2022-12-20T05:05:42;12.23;;;7.53;;
20138;SDS011;10230;51.502;10.800;2022-12-20T05:08:08;13.33;;;6.87;;
20138;SDS011;10230;51.502;10.800;2022-12-20T05:10:34;15.83;;;6.97;;
20138;SDS011;10230;51.502;10.800;2022-12-20T05:12:59;9.57;;;5.83;;
20138;SDS011;10230;51.502;10.800;2022-12-20T05:15:25;10.53;;;6.27;;
20138;SDS011;10230;51.502;10.800;2022-12-20T05:17:51;11.33;;;6.23;;
20138;SDS011;10230;51.502;10.800;2022-12-20T05:20:16;12.40;;;6.90;;
20138;SDS011;10230;51.502;10.800;2022-12-20T05:22:42;10.53;;;6.97;;
20138;SDS011;10230;51.502;10.800;2022-12-20T05:25:26;9.77;;;5.87;;
20138;SDS011;10230;51.502;10.800;2022-12-20T05:28:10;11.40;;;5.90;;
20138;SDS011;10230;51.502;10.800;2022-12-20T05:30:36;10.10;;;6.30;;
20138;SDS011;10230;51.502;10.800;2022-12-20T05:33:02;9.47;;;6.10;;
20138;SDS011;10230;51.502;10.800;2022-12-20T05:35:28;17.50;;;8.07;;
20138;SDS011;10230;51.502;10.800;2022-12-20T05:37:53;15.33;;;7.80;;
20138;SDS011;10230;51.502;10.800;2022-12-20T05:40:19;14.67;;;8.20;;
20138;SDS011;10230;51.502;10.800;2022-12-20T05:42:45;14.40;;;8.00;;
20138;SDS011;10230;51.502;10.800;2022-12-20T05:45:10;13.80;;;7.97;;
20138;SDS011;10230;51.502;10.800;2022-12-20T05:47:36;13.33;;;8.20;;
20138;SDS011;10230;51.502;10.800;2022-12-20T05:50:03;11.30;;;7.13;;
20138;SDS011;10230;51.502;10.800;2022-12-20T05:52:29;10.43;;;6.73;;
20138;SDS011;10230;51.502;10.800;2022-12-20T05:54:55;13.57;;;8.30;;
20138;SDS011;10230;51.502;10.800;2022-12-20T05:57:21;9.70;;;6.63;;
20138;SDS011;10230;51.502;10.800;2022-12-20T05:59:47;12.57;;;6.97;;
20138;SDS011;10230;51.502;10.800;2022-12-20T06:02:13;11.43;;;6.17;;
20138;SDS011;10230;51.502;10.800;2022-12-20T06:04:39;9.60;;;6.53;;
20138;SDS011;10230;51.502;10.800;2022-12-20T06:07:04;13.77;;;6.87;;
20138;SDS011;10230;51.502;10.800;2022-12-20T06:09:30;11.27;;;6.77;;
20138;SDS011;10230;51.502;10.800;2022-12-20T06:11:57;13.27;;;7.37;;
20138;SDS011;10230;51.502;10.800;2022-12-20T06:14:23;13.80;;;7.53;;
20138;SDS011;10230;51.502;10.800;2022-12-20T06:16:49;13.63;;;8.00;;
20138;SDS011;10230;51.502;10.800;2022-12-20T06:19:14;19.77;;;9.93;;
20138;SDS011;10230;51.502;10.800;2022-12-20T06:21:40;12.97;;;7.83;;
20138;SDS011;10230;51.502;10.800;2022-12-20T06:24:06;13.53;;;7.27;;
20138;SDS011;10230;51.502;10.800;2022-12-20T06:26:32;15.00;;;7.93;;
20138;SDS011;10230;51.502;10.800;2022-12-20T06:29:01;13.73;;;7.63;;
20138;SDS011;10230;51.502;10.800;2022-12-20T06:31:27;14.60;;;7.50;;
20138;SDS011;10230;51.502;10.800;2022-12-20T06:33:54;12.43;;;6.90;;
20138;SDS011;10230;51.502;10.800;2022-12-20T06:36:20;17.10;;;8.77;;
20138;SDS011;10230;51.502;10.800;2022-12-20T06:38:46;18.97;;;8.57;;
20138;SDS011;10230;51.502;10.800;2022-12-20T06:41:11;13.80;;;8.50;;
20138;SDS011;10230;51.502;10.800;2022-12-20T06:43:37;15.37;;;8.43;;
20138;SDS011;10230;51.502;10.800;2022-12-20T06:46:03;15.03;;;8.57;;
20138;SDS011;10230;51.502;10.800;2022-12-20T06:48:28;16.30;;;8.73;;
20138;SDS011;10230;51.502;10.800;2022-12-20T06:50:54;31.30;;;15.03;;
20138;SDS011;10230;51.502;10.800;2022-12-20T06:53:20;20.57;;;9.90;;
20138;SDS011;10230;51.502;10.800;2022-12-20T06:55:46;15.93;;;8.93;;
20138;SDS011;10230;51.502;10.800;2022-12-20T06:58:18;14.73;;;7.83;;
20138;SDS011;10230;51.502;10.800;2022-12-20T07:00:45;13.93;;;7.13;;
20138;SDS011;10230;51.502;10.800;2022-12-20T07:03:11;16.20;;;8.37;;
20138;SDS011;10230;51.502;10.800;2022-12-20T07:05:37;14.90;;;8.13;;
20138;SDS011;10230;51.502;10.800;2022-12-20T07:08:03;13.37;;;7.17;;
20138;SDS011;10230;51.502;10.800;2022-12-20T07:10:30;12.20;;;7.10;;
20138;SDS011;10230;51.502;10.800;2022-12-20T07:12:57;12.73;;;6.57;;
20138;SDS011;10230;51.502;10.800;2022-12-20T07:15:23;11.37;;;6.17;;
20138;SDS011;10230;51.502;10.800;2022-12-20T07:17:49;10.93;;;6.77;;
20138;SDS011;10230;51.502;10.800;2022-12-20T07:20:15;10.13;;;6.27;;
20138;SDS011;10230;51.502;10.800;2022-12-20T07:22:41;11.47;;;6.23;;
20138;SDS011;10230;51.502;10.800;2022-12-20T07:25:08;9.87;;;6.47;;
20138;SDS011;10230;51.502;10.800;2022-12-20T07:27:34;10.87;;;7.00;;
20138;SDS011;10230;51.502;10.800;2022-12-20T07:30:00;8.43;;;5.50;;
20138;SDS011;10230;51.502;10.800;2022-12-20T07:32:25;8.17;;;5.07;;
20138;SDS011;10230;51.502;10.800;2022-12-20T07:34:51;10.87;;;6.37;;
20138;SDS011;10230;51.502;10.800;2022-12-20T07:37:17;9.10;;;5.20;;
20138;SDS011;10230;51.502;10.800;2022-12-20T07:39:43;8.30;;;4.70;;
20138;SDS011;10230;51.502;10.800;2022-12-20T07:42:09;9.10;;;5.87;;
20138;SDS011;10230;51.502;10.800;2022-12-20T07:44:35;7.23;;;5.20;;
20138;SDS011;10230;51.502;10.800;2022-12-20T07:47:01;8.67;;;4.80;;
20138;SDS011;10230;51.502;10.800;2022-12-20T07:49:27;8.07;;;5.13;;
20138;SDS011;10230;51.502;10.800;2022-12-20T07:51:54;8.10;;;5.33;;
20138;SDS011;10230;51.502;10.800;2022-12-20T07:54:22;10.13;;;6.13;;
20138;SDS011;10230;51.502;10.800;2022-12-20T07:56:50;9.07;;;5.67;;
20138;SDS011;10230;51.502;10.800;2022-12-20T07:59:17;7.37;;;4.57;;
20138;SDS011;10230;51.502;10.800;2022-12-20T08:01:46;7.10;;;4.60;;
20138;SDS011;10230;51.502;10.800;2022-12-20T08:04:16;7.90;;;5.20;;
20138;SDS011;10230;51.502;10.800;2022-12-20T08:06:43;10.43;;;4.83;;
20138;SDS011;10230;51.502;10.800;2022-12-20T08:09:10;8.50;;;4.97;;
20138;SDS011;10230;51.502;10.800;2022-12-20T08:11:38;8.80;;;5.97;;
20138;SDS011;10230;51.502;10.800;2022-12-20T08:14:05;7.47;;;4.93;;
20138;SDS011;10230;51.502;10.800;2022-12-20T08:16:32;12.03;;;5.63;;
20138;SDS011;10230;51.502;10.800;2022-12-20T08:18:58;10.23;;;5.37;;
20138;SDS011;10230;51.502;10.800;2022-12-20T08:21:24;10.23;;;5.57;;
20138;SDS011;10230;51.502;10.800;2022-12-20T08:23:49;10.40;;;5.93;;
20138;SDS011;10230;51.502;10.800;2022-12-20T08:26:16;10.63;;;5.90;;
20138;SDS011;10230;51.502;10.800;2022-12-20T08:28:42;8.80;;;6.10;;
20138;SDS011;10230;51.502;10.800;2022-12-20T08:31:08;9.77;;;5.07;;
20138;SDS011;10230;51.502;10.800;2022-12-20T08:33:36;8.97;;;5.17;;
20138;SDS011;10230;51.502;10.800;2022-12-20T08:36:05;7.87;;;5.37;;
20138;SDS011;10230;51.502;10.800;2022-12-20T08:38:33;9.63;;;5.50;;
20138;SDS011;10230;51.502;10.800;2022-12-20T08:41:07;9.23;;;5.60;;
20138;SDS011;10230;51.502;10.800;2022-12-20T08:43:35;9.80;;;5.97;;
20138;SDS011;10230;51.502;10.800;2022-12-20T08:46:02;13.57;;;7.10;;
20138;SDS011;10230;51.502;10.800;2022-12-20T08:48:28;11.37;;;7.37;;
20138;SDS011;10230;51.502;10.800;2022-12-20T08:50:54;11.93;;;6.70;;
20138;SDS011;10230;51.502;10.800;2022-12-20T08:53:21;8.67;;;6.13;;
20138;SDS011;10230;51.502;10.800;2022-12-20T08:55:47;11.23;;;6.40;;
20138;SDS011;10230;51.502;10.800;2022-12-20T08:58:13;9.93;;;6.10;;
20138;SDS011;10230;51.502;10.800;2022-12-20T09:00:39;11.00;;;7.30;;
20138;SDS011;10230;51.502;10.800;2022-12-20T09:03:05;14.07;;;7.67;;
20138;SDS011;10230;51.502;10.800;2022-12-20T09:05:32;13.37;;;6.87;;
20138;SDS011;10230;51.502;10.800;2022-12-20T09:07:57;17.67;;;10.37;;
20138;SDS011;10230;51.502;10.800;2022-12-20T09:10:23;11.67;;;6.57;;
20138;SDS011;10230;51.502;10.800;2022-12-20T09:12:49;8.40;;;5.07;;
20138;SDS011;10230;51.502;10.800;2022-12-20T09:15:14;12.37;;;6.43;;
20138;SDS011;10230;51.502;10.800;2022-12-20T09:17:40;11.43;;;5.67;;
20138;SDS011;10230;51.502;10.800;2022-12-20T09:20:06;8.23;;;5.30;;
20138;SDS011;10230;51.502;10.800;2022-12-20T09:22:32;8.53;;;5.37;;
20138;SDS011;10230;51.502;10.800;2022-12-20T09:24:57;7.60;;;4.57;;
20138;SDS011;10230;51.502;10.800;2022-12-20T09:27:23;10.37;;;5.07;;
20138;SDS011;10230;51.502;10.800;2022-12-20T09:29:49;8.30;;;4.97;;
20138;SDS011;10230;51.502;10.800;2022-12-20T09:32:14;8.30;;;5.43;;
20138;SDS011;10230;51.502;10.800;2022-12-20T09:34:40;11.87;;;5.13;;
20138;SDS011;10230;51.502;10.800;2022-12-20T09:37:06;10.67;;;5.50;;
20138;SDS011;10230;51.502;10.800;2022-12-20T09:39:31;16.00;;;5.47;;
20138;SDS011;10230;51.502;10.800;2022-12-20T09:41:57;7.00;;;5.30;;
20138;SDS011;10230;51.502;10.800;2022-12-20T09:47:02;8.83;;;5.03;;
20138;SDS011;10230;51.502;10.800;2022-12-20T09:49:32;7.37;;;5.03;;
20138;SDS011;10230;51.502;10.800;2022-12-20T09:52:42;7.13;;;4.53;;
20138;SDS011;10230;51.502;10.800;2022-12-20T10:00:12;9.17;;;5.27;;
20138;SDS011;10230;51.502;10.800;2022-12-20T10:02:39;6.23;;;4.30;;
20138;SDS011;10230;51.502;10.800;2022-12-20T10:05:07;7.80;;;4.17;;
20138;SDS011;10230;51.502;10.800;2022-12-20T10:07:40;7.30;;;4.30;;
20138;SDS011;10230;51.502;10.800;2022-12-20T10:10:16;8.90;;;4.97;;
20138;SDS011;10230;51.502;10.800;2022-12-20T10:12:48;7.10;;;4.60;;
20138;SDS011;10230;51.502;10.800;2022-12-20T10:15:58;6.80;;;4.23;;
20138;SDS011;10230;51.502;10.800;2022-12-20T10:19:05;6.57;;;4.73;;
20138;SDS011;10230;51.502;10.800;2022-12-20T10:24:18;10.50;;;5.73;;
20138;SDS011;10230;51.502;10.800;2022-12-20T10:26:49;8.33;;;4.53;;
20138;SDS011;10230;51.502;10.800;2022-12-20T10:29:15;7.97;;;5.37;;
20138;SDS011;10230;51.502;10.800;2022-12-20T10:31:41;9.03;;;5.30;;
20138;SDS011;10230;51.502;10.800;2022-12-20T10:34:07;7.60;;;5.03;;
20138;SDS011;10230;51.502;10.800;2022-12-20T10:36:34;9.80;;;4.97;;
20138;SDS011;10230;51.502;10.800;2022-12-20T10:39:04;7.23;;;4.70;;
20138;SDS011;10230;51.502;10.800;2022-12-20T10:41:33;8.47;;;5.43;;
20138;SDS011;10230;51.502;10.800;2022-12-20T10:51:51;9.97;;;5.30;;
20138;SDS011;10230;51.502;10.800;2022-12-20T10:54:27;8.77;;;5.43;;
20138;SDS011;10230;51.502;10.800;2022-12-20T10:57:01;10.77;;;5.80;;
20138;SDS011;10230;51.502;10.800;2022-12-20T10:59:37;7.87;;;4.37;;
20138;SDS011;10230;51.502;10.800;2022-12-20T11:10:20;9.07;;;5.20;;
20138;SDS011;10230;51.502;10.800;2022-12-20T11:12:57;9.00;;;5.27;;
20138;SDS011;10230;51.502;10.800;2022-12-20T11:15:25;7.80;;;5.37;;
20138;SDS011;10230;51.502;10.800;2022-12-20T11:17:58;6.87;;;4.40;;
20138;SDS011;10230;51.502;10.800;2022-12-20T11:20:37;8.17;;;4.93;;
20138;SDS011;10230;51.502;10.800;2022-12-20T11:23:17;7.73;;;4.37;;
20138;SDS011;10230;51.502;10.800;2022-12-20T11:39:14;13.57;;;7.53;;
20138;SDS011;10230;51.502;10.800;2022-12-20T11:44:45;6.70;;;4.50;;
20138;SDS011;10230;51.502;10.800;2022-12-20T11:52:48;7.83;;;4.33;;
20138;SDS011;10230;51.502;10.800;2022-12-20T11:55:26;8.67;;;4.53;;
20138;SDS011;10230;51.502;10.800;2022-12-20T11:57:58;7.80;;;4.53;;
20138;SDS011;10230;51.502;10.800;2022-12-20T12:00:37;8.20;;;4.90;;
20138;SDS011;10230;51.502;10.800;2022-12-20T12:03:13;7.57;;;4.73;;
20138;SDS011;10230;51.502;10.800;2022-12-20T12:05:46;8.33;;;4.30;;
20138;SDS011;10230;51.502;10.800;2022-12-20T12:11:21;7.77;;;4.53;;
20138;SDS011;10230;51.502;10.800;2022-12-20T12:13:51;10.47;;;4.40;;
20138;SDS011;10230;51.502;10.800;2022-12-20T12:16:28;6.63;;;4.17;;
20138;SDS011;10230;51.502;10.800;2022-12-20T12:18:57;5.33;;;3.60;;
20138;SDS011;10230;51.502;10.800;2022-12-20T12:21:25;7.40;;;4.27;;
20138;SDS011;10230;51.502;10.800;2022-12-20T12:24:05;9.23;;;4.57;;
20138;SDS011;10230;51.502;10.800;2022-12-20T12:26:51;5.97;;;3.87;;
20138;SDS011;10230;51.502;10.800;2022-12-20T12:29:17;6.20;;;4.03;;
20138;SDS011;10230;51.502;10.800;2022-12-20T12:31:54;8.23;;;4.40;;
20138;SDS011;10230;51.502;10.800;2022-12-20T12:35:04;6.40;;;4.20;;
20138;SDS011;10230;51.502;10.800;2022-12-20T12:46:15;6.33;;;4.33;;
20138;SDS011;10230;51.502;10.800;2022-12-20T12:49:26;6.93;;;3.97;;
20138;SDS011;10230;51.502;10.800;2022-12-20T12:51:34;6.50;;;3.73;;
20138;SDS011;10230;51.502;10.800;2022-12-20T12:56:37;4.53;;;3.50;;
20138;SDS011;10230;51.502;10.800;2022-12-20T12:59:18;9.40;;;5.33;;
20138;SDS011;10230;51.502;10.800;2022-12-20T13:06:52;11.97;;;7.43;;
20138;SDS011;10230;51.502;10.800;2022-12-20T13:11:53;6.17;;;3.47;;
20138;SDS011;10230;51.502;10.800;2022-12-20T13:19:34;6.77;;;4.50;;
20138;SDS011;10230;51.502;10.800;2022-12-20T13:24:37;5.10;;;3.90;;
20138;SDS011;10230;51.502;10.800;2022-12-20T13:27:22;6.83;;;4.07;;
20138;SDS011;10230;51.502;10.800;2022-12-20T13:35:41;6.63;;;4.07;;
20138;SDS011;10230;51.502;10.800;2022-12-20T13:43:57;8.23;;;4.00;;
20138;SDS011;10230;51.502;10.800;2022-12-20T13:46:49;7.10;;;4.00;;
20138;SDS011;10230;51.502;10.800;2022-12-20T13:49:36;5.50;;;3.73;;
20138;SDS011;10230;51.502;10.800;2022-12-20T13:54:39;10.10;;;4.53;;
20138;SDS011;10230;51.502;10.800;2022-12-20T13:57:14;8.20;;;4.57;;
20138;SDS011;10230;51.502;10.800;2022-12-20T13:59:44;7.27;;;4.00;;
20138;SDS011;10230;51.502;10.800;2022-12-20T14:02:17;7.83;;;4.47;;
20138;SDS011;10230;51.502;10.800;2022-12-20T14:05:01;5.83;;;4.20;;
20138;SDS011;10230;51.502;10.800;2022-12-20T14:07:30;8.30;;;4.10;;
20138;SDS011;10230;51.502;10.800;2022-12-20T14:09:58;8.37;;;4.13;;
20138;SDS011;10230;51.502;10.800;2022-12-20T14:12:25;6.60;;;4.53;;
20138;SDS011;10230;51.502;10.800;2022-12-20T14:14:52;6.47;;;4.27;;
20138;SDS011;10230;51.502;10.800;2022-12-20T14:22:43;6.37;;;4.07;;
20138;SDS011;10230;51.502;10.800;2022-12-20T14:28:01;5.60;;;3.90;;
20138;SDS011;10230;51.502;10.800;2022-12-20T14:30:28;6.17;;;3.57;;
20138;SDS011;10230;51.502;10.800;2022-12-20T14:32:56;6.43;;;3.90;;
20138;SDS011;10230;51.502;10.800;2022-12-20T14:35:22;6.77;;;4.50;;
20138;SDS011;10230;51.502;10.800;2022-12-20T14:37:53;6.83;;;4.43;;
20138;SDS011;10230;51.502;10.800;2022-12-20T14:40:24;8.13;;;3.23;;
20138;SDS011;10230;51.502;10.800;2022-12-20T14:42:51;7.80;;;4.67;;
20138;SDS011;10230;51.502;10.800;2022-12-20T14:45:24;7.07;;;4.07;;
20138;SDS011;10230;51.502;10.800;2022-12-20T14:50:27;6.53;;;3.97;;
20138;SDS011;10230;51.502;10.800;2022-12-20T14:52:55;5.97;;;4.63;;
20138;SDS011;10230;51.502;10.800;2022-12-20T14:55:22;8.47;;;4.43;;
20138;SDS011;10230;51.502;10.800;2022-12-20T15:00:54;8.30;;;5.27;;
20138;SDS011;10230;51.502;10.800;2022-12-20T15:03:22;6.93;;;4.03;;
20138;SDS011;10230;51.502;10.800;2022-12-20T15:05:49;6.37;;;3.70;;
20138;SDS011;10230;51.502;10.800;2022-12-20T15:13:42;8.43;;;4.50;;
20138;SDS011;10230;51.502;10.800;2022-12-20T15:16:24;8.77;;;4.87;;
20138;SDS011;10230;51.502;10.800;2022-12-20T15:18:52;8.23;;;4.57;;
20138;SDS011;10230;51.502;10.800;2022-12-20T15:23:51;8.67;;;5.20;;
20138;SDS011;10230;51.502;10.800;2022-12-20T15:26:19;8.90;;;4.60;;
20138;SDS011;10230;51.502;10.800;2022-12-20T15:28:47;9.20;;;5.10;;
20138;SDS011;10230;51.502;10.800;2022-12-20T15:31:13;8.47;;;3.70;;
20138;SDS011;10230;51.502;10.800;2022-12-20T15:33:44;6.30;;;3.80;;
20138;SDS011;10230;51.502;10.800;2022-12-20T15:36:17;7.87;;;4.30;;
20138;SDS011;10230;51.502;10.800;2022-12-20T15:38:45;6.30;;;3.83;;
20138;SDS011;10230;51.502;10.800;2022-12-20T15:43:49;7.40;;;4.83;;
20138;SDS011;10230;51.502;10.800;2022-12-20T15:46:17;8.73;;;4.53;;
20138;SDS011;10230;51.502;10.800;2022-12-20T15:48:43;5.57;;;3.43;;
20138;SDS011;10230;51.502;10.800;2022-12-20T15:51:16;6.17;;;3.87;;
20138;SDS011;10230;51.502;10.800;2022-12-20T15:53:48;6.93;;;3.60;;
20138;SDS011;10230;51.502;10.800;2022-12-20T15:56:18;9.03;;;4.20;;
20138;SDS011;10230;51.502;10.800;2022-12-20T15:58:46;6.40;;;4.60;;
20138;SDS011;10230;51.502;10.800;2022-12-20T16:01:13;7.73;;;3.90;;
20138;SDS011;10230;51.502;10.800;2022-12-20T16:03:44;6.93;;;4.23;;
20138;SDS011;10230;51.502;10.800;2022-12-20T16:06:10;8.47;;;3.67;;
20138;SDS011;10230;51.502;10.800;2022-12-20T16:08:38;6.97;;;4.63;;
20138;SDS011;10230;51.502;10.800;2022-12-20T16:11:05;6.67;;;4.23;;
20138;SDS011;10230;51.502;10.800;2022-12-20T16:13:38;7.30;;;4.80;;
20138;SDS011;10230;51.502;10.800;2022-12-20T16:16:04;6.43;;;3.77;;
20138;SDS011;10230;51.502;10.800;2022-12-20T16:18:30;7.67;;;4.33;;
20138;SDS011;10230;51.502;10.800;2022-12-20T16:20:56;10.93;;;5.60;;
20138;SDS011;10230;51.502;10.800;2022-12-20T16:23:22;6.67;;;4.33;;
20138;SDS011;10230;51.502;10.800;2022-12-20T16:25:47;6.60;;;4.13;;
20138;SDS011;10230;51.502;10.800;2022-12-20T16:28:14;6.43;;;3.93;;
20138;SDS011;10230;51.502;10.800;2022-12-20T16:30:40;8.27;;;4.83;;
20138;SDS011;10230;51.502;10.800;2022-12-20T16:33:10;7.27;;;4.43;;
20138;SDS011;10230;51.502;10.800;2022-12-20T16:35:43;9.03;;;5.07;;
20138;SDS011;10230;51.502;10.800;2022-12-20T16:38:09;9.80;;;5.10;;
20138;SDS011;10230;51.502;10.800;2022-12-20T16:40:34;8.77;;;4.30;;
20138;SDS011;10230;51.502;10.800;2022-12-20T16:43:00;7.03;;;4.63;;
20138;SDS011;10230;51.502;10.800;2022-12-20T16:45:29;10.93;;;5.33;;
20138;SDS011;10230;51.502;10.800;2022-12-20T16:47:56;7.60;;;4.67;;
20138;SDS011;10230;51.502;10.800;2022-12-20T16:50:24;8.23;;;4.43;;
20138;SDS011;10230;51.502;10.800;2022-12-20T16:52:51;8.20;;;4.67;;
20138;SDS011;10230;51.502;10.800;2022-12-20T16:55:19;9.13;;;4.83;;
20138;SDS011;10230;51.502;10.800;2022-12-20T16:57:47;11.30;;;5.13;;
20138;SDS011;10230;51.502;10.800;2022-12-20T17:00:17;11.83;;;4.97;;
20138;SDS011;10230;51.502;10.800;2022-12-20T17:02:43;9.13;;;5.07;;
20138;SDS011;10230;51.502;10.800;2022-12-20T17:05:19;8.33;;;4.80;;
20138;SDS011;10230;51.502;10.800;2022-12-20T17:07:45;13.20;;;5.50;;
20138;SDS011;10230;51.502;10.800;2022-12-20T17:10:11;12.93;;;6.07;;
20138;SDS011;10230;51.502;10.800;2022-12-20T17:12:37;10.27;;;6.10;;
20138;SDS011;10230;51.502;10.800;2022-12-20T17:15:03;8.30;;;5.37;;
20138;SDS011;10230;51.502;10.800;2022-12-20T17:17:29;9.60;;;5.87;;
20138;SDS011;10230;51.502;10.800;2022-12-20T17:19:54;7.93;;;4.90;;
20138;SDS011;10230;51.502;10.800;2022-12-20T17:22:20;6.93;;;4.63;;
20138;SDS011;10230;51.502;10.800;2022-12-20T17:24:46;8.00;;;5.50;;
20138;SDS011;10230;51.502;10.800;2022-12-20T17:27:11;8.80;;;4.67;;